Time;durP1;ratioP1;P1;durP2;ratioP2;P2;SDS_P1;SDS_P2;PMS_P1;PMS_P2;Temp;Humidity;BMP_temperature;BMP_pressure;BME280_temperature;BME280_humidity;BME280_pressure;Samples;Min_cycle;Max_cycle;Signal;HPM_P1;HPM_P2
2023/02/06 00:01:13;;;;;;;32.85;9.73;;;7.70;95.50;;;;;;5128868;28;20138;-58
2023/02/06 00:03:39;;;;;;;38.70;9.50;;;7.70;95.50;;;;;;5127305;28;20183;-58
2023/02/06 00:06:04;;;;;;;31.15;9.65;;;7.70;95.50;;;;;;5128849;28;20024;-58
2023/02/06 00:08:30;;;;;;;38.47;9.15;;;7.70;95.50;;;;;;5128541;28;20026;-58
2023/02/06 00:10:55;;;;;;;34.15;9.68;;;7.70;95.50;;;;;;5127226;28;20020;-58
2023/02/06 00:13:21;;;;;;;36.47;9.63;;;7.60;95.50;;;;;;5128517;28;20042;-58
2023/02/06 00:15:47;;;;;;;29.20;8.93;;;7.70;95.50;;;;;;5128666;28;20036;-59
2023/02/06 00:18:12;;;;;;;42.03;9.23;;;7.60;95.50;;;;;;5127378;28;20030;-58
2023/02/06 00:20:38;;;;;;;33.40;9.70;;;7.70;95.50;;;;;;5128504;28;20035;-58
2023/02/06 00:23:03;;;;;;;33.22;9.48;;;7.60;95.40;;;;;;5128308;28;20027;-58
2023/02/06 00:25:29;;;;;;;31.35;8.80;;;7.60;95.40;;;;;;5127191;28;20023;-58
2023/02/06 00:27:54;;;;;;;40.17;8.48;;;7.60;95.40;;;;;;5128162;28;20020;-58
2023/02/06 00:30:20;;;;;;;25.40;8.35;;;7.60;95.40;;;;;;5127016;28;20087;-58
2023/02/06 00:32:45;;;;;;;35.38;9.00;;;7.60;95.40;;;;;;5126910;28;20027;-59
2023/02/06 00:35:11;;;;;;;28.23;9.05;;;7.60;95.40;;;;;;5126930;28;20049;-58
2023/02/06 00:37:36;;;;;;;28.50;8.30;;;7.60;95.40;;;;;;5128125;28;20102;-58
2023/02/06 00:40:02;;;;;;;29.40;8.27;;;7.60;95.40;;;;;;5125364;28;20109;-58
2023/02/06 00:42:27;;;;;;;24.83;8.00;;;7.60;95.40;;;;;;5109800;28;20019;-58
2023/02/06 00:44:53;;;;;;;27.20;7.85;;;7.60;95.70;;;;;;5126714;28;20465;-59
2023/02/06 00:47:19;;;;;;;20.83;7.78;;;7.60;95.40;;;;;;5127885;28;20019;-58
2023/02/06 00:49:44;;;;;;;20.15;8.07;;;7.60;95.40;;;;;;5126692;28;20061;-58
2023/02/06 00:52:10;;;;;;;25.58;8.07;;;7.50;95.40;;;;;;5126331;28;20027;-58
2023/02/06 00:54:35;;;;;;;23.85;8.60;;;7.50;95.40;;;;;;5127753;28;20053;-58
2023/02/06 00:57:01;;;;;;;29.00;7.45;;;7.60;95.50;;;;;;5109837;28;20057;-58
2023/02/06 00:59:26;;;;;;;26.88;8.95;;;7.50;95.40;;;;;;5126668;28;20031;-58
2023/02/06 01:01:52;;;;;;;28.50;8.32;;;7.50;95.40;;;;;;5126483;28;20038;-59
2023/02/06 01:04:17;;;;;;;30.27;7.80;;;7.50;95.40;;;;;;5127448;28;20050;-58
2023/02/06 01:06:43;;;;;;;31.30;7.82;;;7.50;95.40;;;;;;5109240;28;20042;-58
2023/02/06 01:09:08;;;;;;;26.15;7.57;;;7.50;95.40;;;;;;5126032;28;20042;-58
2023/02/06 01:11:34;;;;;;;33.60;9.52;;;7.50;95.40;;;;;;5127259;28;20019;-58
2023/02/06 01:14:00;;;;;;;26.38;6.88;;;7.50;95.40;;;;;;5126223;28;20032;-58
2023/02/06 01:16:26;;;;;;;26.70;6.75;;;7.50;95.40;;;;;;5126391;28;20020;-58
2023/02/06 01:18:51;;;;;;;19.50;7.05;;;7.50;95.40;;;;;;5109186;28;20035;-58
2023/02/06 01:21:19;;;;;;;27.15;6.75;;;7.50;95.40;;;;;;5109215;28;20034;-58
2023/02/06 01:23:46;;;;;;;25.05;7.00;;;7.50;95.40;;;;;;5126028;28;20107;-58
2023/02/06 01:26:12;;;;;;;23.45;7.50;;;7.50;95.40;;;;;;5127441;28;20028;-59
2023/02/06 01:28:39;;;;;;;22.75;7.75;;;7.50;95.40;;;;;;5109229;28;20076;-56
2023/02/06 01:31:11;;;;;;;22.52;6.75;;;7.50;95.40;;;;;;5108674;28;20080;-56
2023/02/06 01:33:36;;;;;;;21.20;7.13;;;7.50;95.40;;;;;;5125709;28;20024;-56
2023/02/06 01:36:02;;;;;;;25.00;7.72;;;7.50;95.40;;;;;;5127085;28;20024;-56
2023/02/06 01:38:28;;;;;;;23.40;7.38;;;7.50;95.40;;;;;;5125669;28;20462;-55
2023/02/06 01:40:57;;;;;;;20.15;7.25;;;7.50;95.40;;;;;;5126913;28;20038;-56
2023/02/06 01:43:23;;;;;;;22.00;6.72;;;7.40;95.30;;;;;;5108677;28;20027;-55
2023/02/06 01:45:48;;;;;;;21.25;6.95;;;7.40;95.30;;;;;;5126973;28;20042;-56
2023/02/06 01:48:19;;;;;;;20.45;7.40;;;7.40;95.20;;;;;;5125279;28;20031;-56
2023/02/06 01:50:47;;;;;;;23.33;6.93;;;7.40;95.20;;;;;;5108642;28;20031;-55
2023/02/06 01:53:12;;;;;;;28.40;6.93;;;7.40;95.30;;;;;;5125310;28;20020;-55
2023/02/06 01:55:38;;;;;;;28.05;6.70;;;7.40;95.30;;;;;;5125379;28;20084;-55
2023/02/06 01:58:04;;;;;;;20.90;6.35;;;7.40;95.30;;;;;;5091251;28;20036;-55
2023/02/06 02:00:30;;;;;;;20.17;6.70;;;7.40;95.20;;;;;;5108438;28;20031;-56
2023/02/06 02:02:55;;;;;;;21.67;6.43;;;7.40;95.20;;;;;;5125315;28;20031;-56
2023/02/06 02:05:21;;;;;;;15.07;6.82;;;7.40;95.20;;;;;;5108173;28;20047;-55
2023/02/06 02:07:50;;;;;;;18.40;5.93;;;7.40;95.20;;;;;;5125260;28;20019;-55
2023/02/06 02:10:16;;;;;;;22.20;7.13;;;7.40;95.20;;;;;;5108215;28;20023;-56
2023/02/06 02:12:41;;;;;;;16.40;6.18;;;7.40;95.20;;;;;;5125111;28;20151;-56
2023/02/06 02:15:07;;;;;;;16.42;6.00;;;7.30;95.30;;;;;;5108009;28;20036;-56
2023/02/06 02:17:50;;;;;;;15.85;6.13;;;7.40;95.30;;;;;;5108027;28;20023;-55
2023/02/06 02:20:44;;;;;;;19.45;6.72;;;7.30;95.30;;;;;;5108628;28;20031;-55
2023/02/06 02:23:18;;;;;;;19.73;6.40;;;7.30;95.30;;;;;;5126371;28;20023;-56
2023/02/06 02:26:05;;;;;;;18.42;5.82;;;7.30;95.30;;;;;;5124936;28;20027;-56
2023/02/06 02:28:55;;;;;;;17.83;6.15;;;7.30;95.30;;;;;;5125831;28;20027;-55
2023/02/06 02:31:38;;;;;;;18.15;6.18;;;7.30;95.30;;;;;;5125970;28;20030;-56
2023/02/06 02:34:27;;;;;;;13.88;6.50;;;7.30;95.30;;;;;;5126042;28;20031;-56
2023/02/06 02:37:00;;;;;;;16.25;6.38;;;7.30;95.30;;;;;;5095462;28;20048;-56
2023/02/06 02:39:44;;;;;;;13.05;5.90;;;7.30;95.30;;;;;;5124629;28;20032;-55
2023/02/06 02:42:39;;;;;;;13.45;6.15;;;7.30;95.30;;;;;;5124458;28;20031;-56
2023/02/06 02:45:20;;;;;;;15.18;6.22;;;7.30;95.40;;;;;;5124563;28;20046;-55
2023/02/06 02:47:58;;;;;;;16.67;5.85;;;7.30;95.30;;;;;;5109356;28;20028;-56
2023/02/06 02:50:24;;;;;;;12.90;6.03;;;7.30;95.30;;;;;;5107461;28;20035;-55
2023/02/06 02:52:50;;;;;;;10.27;5.65;;;7.20;95.30;;;;;;5124489;28;20075;-55
2023/02/06 02:55:18;;;;;;;13.73;6.15;;;7.20;95.30;;;;;;5107472;28;20332;-56
2023/02/06 02:57:43;;;;;;;17.45;6.63;;;7.20;95.30;;;;;;5124131;28;20024;-55
2023/02/06 03:00:09;;;;;;;11.88;5.95;;;7.20;95.30;;;;;;5090218;28;20035;-56
2023/02/06 03:02:36;;;;;;;21.30;6.38;;;7.20;95.30;;;;;;5123309;28;20076;-56
2023/02/06 03:05:07;;;;;;;14.02;6.53;;;7.20;95.30;;;;;;5107518;28;20043;-56
2023/02/06 03:07:52;;;;;;;10.68;5.47;;;7.20;95.20;;;;;;5107773;28;20054;-55
2023/02/06 03:10:36;;;;;;;16.88;5.53;;;7.20;95.20;;;;;;5124327;28;20038;-55
2023/02/06 03:13:22;;;;;;;8.98;5.68;;;7.20;95.20;;;;;;5125209;28;20027;-56
2023/02/06 03:16:00;;;;;;;16.70;6.20;;;7.20;95.20;;;;;;5099813;27;20042;-55
2023/02/06 03:19:03;;;;;;;12.32;5.65;;;7.20;95.20;;;;;;5124198;28;20028;-56
2023/02/06 03:21:29;;;;;;;14.32;6.00;;;7.20;95.20;;;;;;5124080;28;20066;-55
2023/02/06 03:23:57;;;;;;;17.20;5.82;;;7.20;95.20;;;;;;5106761;28;20024;-55
2023/02/06 03:26:25;;;;;;;16.23;6.05;;;7.10;95.20;;;;;;5089976;28;20030;-56
2023/02/06 03:28:51;;;;;;;12.25;6.18;;;7.10;95.20;;;;;;5089971;28;20080;-56
2023/02/06 03:31:22;;;;;;;13.55;6.05;;;7.20;95.20;;;;;;5107190;28;20466;-56
2023/02/06 03:33:54;;;;;;;10.38;6.30;;;7.10;95.20;;;;;;5124108;28;20057;-55
2023/02/06 03:36:20;;;;;;;12.65;6.18;;;7.10;95.20;;;;;;5124059;28;20429;-56
2023/02/06 03:38:46;;;;;;;10.40;5.57;;;7.10;95.20;;;;;;5123987;28;20053;-56
2023/02/06 03:41:12;;;;;;;12.35;5.78;;;7.10;95.20;;;;;;5123906;28;20039;-56
2023/02/06 03:43:38;;;;;;;10.38;6.15;;;7.10;95.20;;;;;;5106744;28;20023;-55
2023/02/06 03:46:04;;;;;;;8.60;5.72;;;7.10;95.20;;;;;;5106860;28;20054;-55
2023/02/06 03:48:34;;;;;;;9.77;5.70;;;7.10;95.20;;;;;;5106627;28;20028;-55
2023/02/06 03:51:03;;;;;;;11.82;6.05;;;7.10;95.20;;;;;;5107077;28;20028;-56
2023/02/06 03:53:28;;;;;;;13.18;5.60;;;7.20;95.20;;;;;;5106868;28;20023;-55
2023/02/06 03:55:55;;;;;;;11.40;5.70;;;7.10;95.20;;;;;;5106816;28;20051;-55
2023/02/06 03:58:21;;;;;;;9.35;5.05;;;7.10;95.20;;;;;;5106720;28;20038;-56
2023/02/06 04:00:47;;;;;;;11.55;5.78;;;7.10;95.20;;;;;;5106729;28;20048;-55
2023/02/06 04:03:13;;;;;;;9.80;5.15;;;7.10;95.20;;;;;;5106676;28;20055;-55
2023/02/06 04:05:39;;;;;;;11.57;5.45;;;7.10;95.20;;;;;;5106659;28;20025;-55
2023/02/06 04:08:04;;;;;;;9.95;5.55;;;7.20;95.20;;;;;;5124963;28;20105;-55
2023/02/06 04:10:30;;;;;;;11.75;5.50;;;7.20;95.20;;;;;;5123550;28;20058;-55
2023/02/06 04:12:55;;;;;;;8.77;5.43;;;7.20;95.20;;;;;;5106506;28;20102;-56
2023/02/06 04:15:21;;;;;;;10.23;4.93;;;7.20;95.10;;;;;;5127947;28;20135;-56
2023/02/06 04:17:47;;;;;;;9.32;4.85;;;7.20;95.10;;;;;;5128576;28;20072;-55
2023/02/06 04:20:12;;;;;;;9.02;5.30;;;7.20;95.10;;;;;;5128730;28;20043;-55
2023/02/06 04:22:38;;;;;;;10.65;5.03;;;7.20;95.10;;;;;;5127021;28;20027;-56
2023/02/06 04:25:04;;;;;;;10.02;4.97;;;7.20;95.00;;;;;;5144043;27;20043;-55
2023/02/06 04:27:30;;;;;;;8.68;5.53;;;7.20;95.10;;;;;;5128571;28;20023;-55
2023/02/06 04:29:55;;;;;;;7.78;5.20;;;7.20;95.00;;;;;;5126910;28;20038;-56
2023/02/06 04:32:21;;;;;;;9.80;5.07;;;7.20;95.00;;;;;;5128379;28;20031;-55
2023/02/06 04:34:46;;;;;;;11.38;5.38;;;7.20;95.00;;;;;;5126952;28;20032;-55
2023/02/06 04:37:12;;;;;;;11.73;6.00;;;7.20;94.90;;;;;;5126925;28;20091;-56
2023/02/06 04:39:37;;;;;;;6.72;4.88;;;7.20;94.90;;;;;;5126855;28;20034;-55
2023/02/06 04:42:03;;;;;;;9.40;5.35;;;7.20;94.90;;;;;;5128395;28;20155;-56
2023/02/06 04:44:29;;;;;;;6.93;5.05;;;7.20;95.00;;;;;;5110218;28;20032;-55
2023/02/06 04:46:55;;;;;;;8.95;5.75;;;7.20;95.00;;;;;;5109636;28;20106;-56
2023/02/06 04:49:21;;;;;;;8.13;5.25;;;7.10;95.10;;;;;;5128706;28;20046;-55
2023/02/06 04:51:46;;;;;;;10.85;5.18;;;7.10;95.20;;;;;;5127787;28;20054;-56
2023/02/06 04:54:13;;;;;;;5.25;4.53;;;7.20;95.40;;;;;;5128036;28;20039;-56
2023/02/06 04:56:38;;;;;;;10.23;5.25;;;7.20;95.30;;;;;;5126578;28;20031;-55
2023/02/06 04:59:04;;;;;;;7.35;5.70;;;7.20;95.40;;;;;;5126260;28;20084;-55
2023/02/06 05:01:29;;;;;;;10.20;5.57;;;7.20;95.40;;;;;;5126481;28;20027;-56
2023/02/06 05:03:55;;;;;;;8.43;5.50;;;7.20;95.40;;;;;;5126085;28;20067;-56
2023/02/06 05:06:20;;;;;;;9.05;5.43;;;7.10;95.40;;;;;;5126482;28;20072;-56
2023/02/06 05:08:46;;;;;;;6.80;5.43;;;7.20;95.40;;;;;;5126336;28;20513;-56
2023/02/06 05:11:11;;;;;;;8.75;5.38;;;7.20;95.50;;;;;;5127762;28;20024;-56
2023/02/06 05:13:37;;;;;;;10.88;5.60;;;7.20;95.70;;;;;;5125966;28;20023;-56
2023/02/06 05:16:10;;;;;;;8.98;5.63;;;7.20;96.00;;;;;;5109172;28;20197;-56
2023/02/06 05:18:35;;;;;;;8.50;6.07;;;7.20;95.60;;;;;;5109427;28;20051;-56
2023/02/06 05:21:01;;;;;;;8.57;6.05;;;7.20;95.50;;;;;;5126219;28;20024;-55
2023/02/06 05:23:26;;;;;;;11.60;7.25;;;7.20;95.50;;;;;;5127053;28;20039;-56
2023/02/06 05:25:52;;;;;;;9.73;7.38;;;7.10;95.40;;;;;;5125315;28;20020;-56
2023/02/06 05:28:17;;;;;;;12.15;6.88;;;7.20;95.40;;;;;;5126111;28;20478;-55
2023/02/06 05:30:43;;;;;;;9.57;6.82;;;7.10;95.40;;;;;;5127402;28;20481;-55
2023/02/06 05:33:09;;;;;;;10.43;6.88;;;7.20;95.40;;;;;;5125959;28;20099;-56
2023/02/06 05:35:36;;;;;;;10.52;7.13;;;7.10;95.30;;;;;;5125737;28;20188;-55
2023/02/06 05:38:02;;;;;;;8.75;7.18;;;7.20;95.40;;;;;;5127356;28;20069;-55
2023/02/06 05:40:27;;;;;;;8.00;6.75;;;7.20;95.40;;;;;;5127170;28;20027;-56
2023/02/06 05:42:53;;;;;;;9.77;7.82;;;7.10;95.40;;;;;;5125606;28;20042;-56
2023/02/06 05:45:18;;;;;;;11.02;7.25;;;7.10;95.40;;;;;;5125729;28;20032;-55
2023/02/06 05:47:44;;;;;;;9.10;7.85;;;7.10;95.30;;;;;;5108461;28;20105;-56
2023/02/06 05:50:10;;;;;;;9.10;7.65;;;7.10;95.30;;;;;;5125747;28;20032;-56
2023/02/06 05:52:35;;;;;;;11.30;7.63;;;7.10;95.60;;;;;;5125306;28;20081;-55
2023/02/06 05:55:01;;;;;;;11.50;8.05;;;7.10;95.20;;;;;;5091592;28;20466;-55
2023/02/06 05:57:26;;;;;;;9.93;8.02;;;7.20;95.20;;;;;;5108343;28;20058;-56
2023/02/06 05:59:52;;;;;;;8.43;7.60;;;7.10;95.20;;;;;;5125057;28;20031;-56
2023/02/06 06:02:17;;;;;;;9.43;7.45;;;7.00;95.20;;;;;;5126660;28;20101;-55
2023/02/06 06:04:43;;;;;;;9.98;7.93;;;7.00;95.20;;;;;;5126463;28;20035;-56
2023/02/06 06:07:08;;;;;;;10.07;7.70;;;7.00;95.20;;;;;;5108400;28;20075;-56
2023/02/06 06:09:34;;;;;;;14.30;7.57;;;7.00;95.10;;;;;;5108683;28;20031;-56
2023/02/06 06:11:59;;;;;;;10.27;7.65;;;7.00;95.10;;;;;;5126573;28;20028;-56
2023/02/06 06:14:25;;;;;;;8.70;7.68;;;7.00;95.10;;;;;;5108176;28;20039;-55
2023/02/06 06:16:51;;;;;;;10.05;8.35;;;7.00;95.10;;;;;;5126591;28;20053;-56
2023/02/06 06:19:17;;;;;;;10.35;7.47;;;6.90;95.10;;;;;;5124650;28;20058;-56
2023/02/06 06:21:42;;;;;;;10.75;7.95;;;6.90;95.00;;;;;;5108363;28;20028;-56
2023/02/06 06:24:08;;;;;;;10.52;8.52;;;6.90;95.00;;;;;;5126347;28;20036;-56
2023/02/06 06:26:33;;;;;;;10.50;7.90;;;6.90;95.00;;;;;;5124845;28;20023;-55
2023/02/06 06:28:59;;;;;;;9.40;8.13;;;6.90;95.00;;;;;;5125033;28;20032;-56
2023/02/06 06:31:24;;;;;;;8.98;7.90;;;6.90;95.00;;;;;;5126188;28;20030;-56
2023/02/06 06:33:50;;;;;;;12.15;7.97;;;6.90;94.90;;;;;;5124939;28;20031;-56
2023/02/06 06:36:15;;;;;;;8.70;7.80;;;6.80;94.90;;;;;;5126370;28;20019;-56
2023/02/06 06:38:41;;;;;;;9.02;8.13;;;6.80;94.90;;;;;;5124663;28;20044;-56
2023/02/06 06:41:06;;;;;;;9.60;8.40;;;6.80;94.90;;;;;;5107942;28;20054;-55
2023/02/06 06:43:32;;;;;;;11.05;7.55;;;6.80;94.90;;;;;;5124629;28;20096;-56
2023/02/06 06:45:59;;;;;;;9.45;8.02;;;6.80;94.90;;;;;;5126196;28;20072;-56
2023/02/06 06:48:25;;;;;;;8.93;7.43;;;6.80;94.80;;;;;;5124619;28;20386;-56
2023/02/06 06:50:50;;;;;;;10.38;8.30;;;6.80;94.80;;;;;;5125549;28;20085;-56
2023/02/06 06:53:16;;;;;;;9.07;8.18;;;6.80;94.80;;;;;;5124493;28;20024;-56
2023/02/06 06:55:42;;;;;;;9.02;8.13;;;6.80;94.80;;;;;;5107612;28;20047;-56
2023/02/06 06:58:07;;;;;;;9.48;8.48;;;6.70;94.70;;;;;;5124355;28;20129;-56
2023/02/06 07:00:33;;;;;;;9.35;8.35;;;6.70;94.70;;;;;;5125831;28;20039;-55
2023/02/06 07:02:58;;;;;;;10.60;8.43;;;6.70;94.70;;;;;;5124590;28;20038;-56
2023/02/06 07:05:24;;;;;;;9.23;8.23;;;6.70;94.60;;;;;;5124423;28;20063;-56
2023/02/06 07:07:49;;;;;;;9.40;8.40;;;6.70;94.60;;;;;;5125888;28;20019;-56
2023/02/06 07:10:15;;;;;;;10.82;7.93;;;6.70;94.60;;;;;;5125925;28;20024;-56
2023/02/06 07:12:41;;;;;;;8.90;8.00;;;6.70;94.60;;;;;;5124634;28;20016;-56
2023/02/06 07:15:07;;;;;;;12.95;8.60;;;6.70;94.60;;;;;;5107758;28;20020;-56
2023/02/06 07:17:33;;;;;;;10.43;8.63;;;6.70;94.50;;;;;;5125595;28;20024;-56
2023/02/06 07:19:58;;;;;;;9.73;8.73;;;6.70;94.50;;;;;;5141158;28;20050;-56
2023/02/06 07:22:24;;;;;;;9.75;8.80;;;6.70;94.50;;;;;;5124283;28;20064;-56
2023/02/06 07:24:50;;;;;;;10.80;9.20;;;6.70;94.50;;;;;;5125542;28;20038;-56
2023/02/06 07:27:15;;;;;;;10.25;9.13;;;6.70;94.50;;;;;;5107420;28;20023;-56
2023/02/06 07:29:41;;;;;;;10.07;8.82;;;6.80;94.50;;;;;;5124873;28;20035;-56
2023/02/06 07:32:06;;;;;;;11.07;8.40;;;6.70;94.40;;;;;;5124219;28;20051;-55
2023/02/06 07:34:32;;;;;;;11.18;9.50;;;6.70;94.40;;;;;;5125518;28;20036;-55
2023/02/06 07:37:00;;;;;;;9.60;8.63;;;6.70;94.40;;;;;;5123897;28;20023;-55
2023/02/06 07:39:26;;;;;;;10.93;9.68;;;6.70;94.60;;;;;;5090753;28;20031;-56
2023/02/06 07:41:51;;;;;;;10.93;9.45;;;6.70;94.30;;;;;;5125135;28;20019;-56
2023/02/06 07:44:17;;;;;;;11.43;10.23;;;6.70;94.30;;;;;;5125082;28;20117;-56
2023/02/06 07:46:43;;;;;;;10.73;9.18;;;6.70;94.30;;;;;;5125103;28;20019;-56
2023/02/06 07:49:11;;;;;;;13.15;10.60;;;6.70;94.30;;;;;;5126303;28;20032;-56
2023/02/06 07:51:37;;;;;;;11.90;10.45;;;6.70;94.30;;;;;;5129086;28;20058;-56
2023/02/06 07:54:03;;;;;;;13.50;10.10;;;6.70;94.40;;;;;;5127795;28;20047;-55
2023/02/06 07:56:28;;;;;;;11.02;9.35;;;6.70;94.40;;;;;;5127835;28;20092;-55
2023/02/06 07:58:54;;;;;;;16.08;10.75;;;6.70;94.40;;;;;;5127573;28;20032;-56
2023/02/06 08:01:20;;;;;;;13.05;9.82;;;6.70;94.40;;;;;;5127809;28;20051;-56
2023/02/06 08:03:51;;;;;;;14.07;10.52;;;6.70;94.40;;;;;;5128423;28;20039;-56
2023/02/06 08:06:16;;;;;;;12.82;10.18;;;6.70;94.30;;;;;;5111559;28;20024;-56
2023/02/06 08:08:42;;;;;;;16.17;10.05;;;6.70;94.30;;;;;;5110489;28;20517;-56
2023/02/06 08:11:10;;;;;;;14.95;10.48;;;6.70;94.30;;;;;;5127493;28;20068;-56
2023/02/06 08:13:35;;;;;;;13.50;10.70;;;6.70;94.30;;;;;;5110624;28;20023;-56
2023/02/06 08:16:15;;;;;;;11.32;10.00;;;6.70;94.30;;;;;;5127660;28;20066;-56
2023/02/06 08:18:41;;;;;;;12.25;10.43;;;6.70;94.30;;;;;;5128842;27;20050;-56
2023/02/06 08:21:10;;;;;;;14.95;10.90;;;6.70;94.30;;;;;;5128653;28;20182;-56
2023/02/06 08:23:36;;;;;;;15.68;11.07;;;6.70;94.30;;;;;;5127235;28;20111;-56
2023/02/06 08:26:13;;;;;;;14.98;10.98;;;6.70;94.30;;;;;;5128580;28;20097;-56
2023/02/06 08:28:38;;;;;;;16.05;10.90;;;6.70;94.20;;;;;;5110310;28;20022;-56
2023/02/06 08:31:12;;;;;;;14.65;10.38;;;6.80;94.20;;;;;;5127049;28;20019;-56
2023/02/06 08:33:38;;;;;;;13.27;10.77;;;6.80;94.20;;;;;;5127052;28;20430;-56
2023/02/06 08:36:04;;;;;;;17.33;11.55;;;6.70;94.20;;;;;;5128667;28;20502;-56
2023/02/06 08:38:30;;;;;;;14.00;10.45;;;6.80;94.20;;;;;;5109857;28;20079;-56
2023/02/06 08:40:55;;;;;;;19.27;11.35;;;6.80;94.20;;;;;;5126949;28;20024;-56
2023/02/06 08:43:21;;;;;;;16.50;10.98;;;6.80;94.10;;;;;;5126913;28;20028;-56
2023/02/06 08:45:48;;;;;;;17.70;10.77;;;6.80;94.10;;;;;;5128137;28;20096;-56
2023/02/06 08:48:14;;;;;;;14.35;11.32;;;6.80;94.10;;;;;;5109770;28;20055;-56
2023/02/06 08:50:40;;;;;;;20.48;11.10;;;6.80;94.00;;;;;;5109733;28;20032;-56
2023/02/06 08:53:05;;;;;;;21.40;11.82;;;6.80;94.00;;;;;;5128046;28;20091;-56
2023/02/06 08:55:31;;;;;;;22.13;10.13;;;6.80;94.00;;;;;;5109454;28;20035;-55
2023/02/06 08:57:56;;;;;;;15.52;10.60;;;6.80;94.00;;;;;;5109081;28;20123;-56
2023/02/06 09:00:22;;;;;;;16.42;11.10;;;6.80;94.00;;;;;;5107825;28;20046;-56
2023/02/06 09:02:47;;;;;;;16.20;11.10;;;6.90;94.00;;;;;;5127871;28;20067;-56
2023/02/06 09:05:14;;;;;;;18.85;11.25;;;6.90;94.00;;;;;;5127680;28;20031;-56
2023/02/06 09:07:40;;;;;;;18.70;11.45;;;6.90;94.00;;;;;;5109343;28;20027;-55
2023/02/06 09:10:05;;;;;;;16.77;10.55;;;6.80;93.90;;;;;;5126691;28;20020;-56
2023/02/06 09:12:31;;;;;;;17.15;10.13;;;6.90;93.90;;;;;;5127620;28;20019;-56
2023/02/06 09:14:56;;;;;;;18.13;10.60;;;6.80;93.90;;;;;;5127570;28;20432;-56
2023/02/06 09:17:22;;;;;;;32.05;10.98;;;6.80;93.90;;;;;;5126516;28;20020;-56
2023/02/06 09:19:47;;;;;;;21.30;11.45;;;6.90;93.90;;;;;;5127633;28;20401;-56
2023/02/06 09:22:13;;;;;;;22.50;11.10;;;6.90;93.90;;;;;;5125951;28;20081;-56
2023/02/06 09:24:39;;;;;;;21.70;10.52;;;6.90;93.80;;;;;;5127369;28;20043;-56
2023/02/06 09:27:04;;;;;;;35.42;11.75;;;6.90;93.80;;;;;;5126072;28;20118;-56
2023/02/06 09:29:32;;;;;;;39.33;10.95;;;6.90;93.80;;;;;;5125919;28;20107;-56
2023/02/06 09:31:58;;;;;;;28.83;11.52;;;7.00;93.80;;;;;;5125838;28;20022;-56
2023/02/06 09:34:25;;;;;;;45.17;12.60;;;7.00;93.80;;;;;;5125658;28;20040;-56
2023/02/06 09:36:53;;;;;;;144.60;19.40;;;7.00;93.70;;;;;;5108926;28;20023;-56
2023/02/06 09:39:18;;;;;;;62.50;14.60;;;7.00;93.60;;;;;;5142499;27;20035;-56
2023/02/06 09:42:09;;;;;;;39.75;12.57;;;7.00;93.60;;;;;;5142571;27;20027;-56
2023/02/06 09:44:40;;;;;;;24.95;11.20;;;7.00;93.60;;;;;;5110502;28;20163;-55
2023/02/06 09:47:16;;;;;;;33.85;12.30;;;7.00;93.60;;;;;;5108729;28;20024;-56
2023/02/06 09:49:47;;;;;;;40.72;12.38;;;7.00;93.50;;;;;;5125243;28;20031;-56
2023/02/06 09:52:48;;;;;;;31.33;10.52;;;7.10;93.50;;;;;;5108397;28;20024;-56
2023/02/06 09:55:32;;;;;;;26.75;10.98;;;7.10;93.50;;;;;;5125340;28;20032;-56
2023/02/06 09:58:28;;;;;;;33.65;11.07;;;7.10;93.50;;;;;;5109840;28;20402;-56
2023/02/06 10:00:57;;;;;;;22.77;11.23;;;7.10;93.40;;;;;;5125543;28;20373;-55
2023/02/06 10:03:32;;;;;;;34.10;11.40;;;7.10;93.40;;;;;;5124828;28;20134;-56
2023/02/06 10:06:12;;;;;;;37.22;11.85;;;7.10;93.40;;;;;;5124952;28;20028;-56
2023/02/06 10:08:53;;;;;;;35.42;11.90;;;7.10;93.30;;;;;;5107653;28;20057;-56
2023/02/06 10:11:33;;;;;;;28.88;13.20;;;7.20;93.30;;;;;;5109890;28;20088;-55
2023/02/06 10:14:05;;;;;;;32.60;11.82;;;7.20;93.20;;;;;;5125110;28;20024;-56
2023/02/06 10:16:44;;;;;;;39.47;10.75;;;7.20;93.20;;;;;;5109057;28;20044;-56
2023/02/06 10:19:37;;;;;;;31.92;12.18;;;7.20;93.20;;;;;;5124587;28;20031;-56
2023/02/06 10:22:28;;;;;;;36.67;11.25;;;7.20;93.10;;;;;;5124740;28;20470;-56
2023/02/06 10:25:26;;;;;;;38.70;10.80;;;7.30;93.10;;;;;;5083850;28;20047;-56
2023/02/06 10:27:56;;;;;;;23.15;10.75;;;7.20;93.10;;;;;;5107896;28;20038;-56
2023/02/06 10:30:42;;;;;;;31.23;11.48;;;7.30;93.10;;;;;;5108165;28;20020;-56
2023/02/06 10:33:25;;;;;;;34.03;11.63;;;7.30;93.10;;;;;;5124669;28;20024;-56
2023/02/06 10:36:03;;;;;;;23.48;10.52;;;7.30;93.10;;;;;;5125799;28;20100;-56
2023/02/06 10:38:49;;;;;;;39.15;12.70;;;7.30;93.10;;;;;;5125735;28;20143;-56
2023/02/06 10:42:05;;;;;;;40.13;11.93;;;7.30;93.00;;;;;;5125422;28;20043;-56
2023/02/06 10:44:41;;;;;;;46.22;13.05;;;7.40;93.00;;;;;;5090821;28;20036;-56
2023/02/06 10:47:37;;;;;;;33.13;11.80;;;7.40;92.90;;;;;;5108523;28;20024;-56
2023/02/06 10:50:18;;;;;;;64.13;12.45;;;7.40;92.90;;;;;;5125523;28;20040;-56
2023/02/06 10:52:44;;;;;;;46.28;12.18;;;7.40;92.90;;;;;;5125603;28;20048;-56
2023/02/06 10:55:24;;;;;;;55.78;13.00;;;7.40;92.80;;;;;;5107188;28;20034;-56
2023/02/06 10:57:58;;;;;;;50.15;11.98;;;7.50;92.80;;;;;;5090861;28;20031;-56
2023/02/06 11:00:25;;;;;;;56.08;13.25;;;7.50;92.80;;;;;;5108073;28;20028;-56
2023/02/06 11:02:55;;;;;;;56.47;13.73;;;7.50;92.70;;;;;;5124102;28;20015;-56
2023/02/06 11:05:26;;;;;;;52.85;14.70;;;7.50;92.60;;;;;;5107789;28;20030;-56
2023/02/06 11:08:12;;;;;;;83.20;15.23;;;7.50;92.50;;;;;;5106560;28;20023;-56
2023/02/06 11:10:37;;;;;;;;;;;7.50;92.50;;;;;;5124041;28;20027;-56
2023/02/06 11:13:13;;;;;;;;;;;7.60;92.50;;;;;;5124078;28;19929;-56
2023/02/06 11:16:07;;;;;;;119.53;16.95;;;7.60;92.50;;;;;;5125352;28;19912;-56
2023/02/06 11:18:44;;;;;;;114.95;20.38;;;7.60;92.50;;;;;;5124091;28;20020;-56
2023/02/06 11:21:11;;;;;;;88.20;17.00;;;7.70;92.70;;;;;;5107127;28;20102;-56
2023/02/06 11:23:37;;;;;;;77.07;14.98;;;7.60;92.60;;;;;;5105943;28;20086;-56
2023/02/06 11:26:04;;;;;;;145.93;20.27;;;7.70;92.60;;;;;;5107730;28;20079;-56
2023/02/06 11:28:32;;;;;;;350.63;36.42;;;7.70;92.50;;;;;;5108069;28;20016;-56
2023/02/06 11:31:04;;;;;;;172.80;23.80;;;7.70;92.50;;;;;;5081265;28;20503;-55
2023/02/06 11:33:45;;;;;;;76.88;16.40;;;7.70;92.40;;;;;;5081040;28;20048;-56
2023/02/06 11:36:32;;;;;;;76.97;17.30;;;7.70;92.30;;;;;;5065610;28;20033;-56
2023/02/06 11:39:06;;;;;;;96.15;17.17;;;7.80;92.20;;;;;;5081368;28;20056;-56
2023/02/06 11:41:31;;;;;;;108.88;19.00;;;7.80;92.20;;;;;;5082316;28;20084;-56
2023/02/06 11:44:01;;;;;;;65.32;15.77;;;7.80;92.20;;;;;;5083301;28;20064;-56
2023/02/06 11:46:34;;;;;;;69.57;15.20;;;7.80;92.10;;;;;;5082820;28;20088;-56
2023/02/06 11:49:23;;;;;;;78.40;14.80;;;7.80;92.00;;;;;;5082886;28;20126;-55
2023/02/06 11:51:54;;;;;;;73.85;14.45;;;7.80;91.90;;;;;;5084187;28;20084;-55
2023/02/06 11:54:34;;;;;;;76.97;14.20;;;7.90;91.90;;;;;;5082572;28;20049;-56
2023/02/06 11:57:22;;;;;;;86.30;15.23;;;7.90;91.90;;;;;;5082709;28;20083;-56
2023/02/06 11:59:59;;;;;;;77.43;15.48;;;7.90;91.90;;;;;;5082651;28;20043;-56
2023/02/06 12:02:29;;;;;;;64.70;13.55;;;7.90;92.10;;;;;;5082988;28;20024;-56
2023/02/06 12:05:00;;;;;;;62.67;14.27;;;7.90;91.70;;;;;;5084337;28;20078;-56
2023/02/06 12:07:51;;;;;;;85.60;14.52;;;8.00;91.60;;;;;;5082675;28;20104;-58
2023/02/06 12:10:17;;;;;;;57.55;13.13;;;8.00;91.60;;;;;;5074970;28;20059;-58
2023/02/06 12:12:46;;;;;;;71.28;13.10;;;8.00;91.50;;;;;;5065826;28;20028;-58
2023/02/06 12:15:17;;;;;;;61.55;14.07;;;8.00;91.50;;;;;;5082548;28;20157;-58
2023/02/06 12:18:03;;;;;;;64.18;13.88;;;8.00;91.40;;;;;;5082783;28;20218;-58
2023/02/06 12:20:31;;;;;;;65.85;13.38;;;8.00;91.50;;;;;;5082644;28;20082;-58
2023/02/06 12:23:17;;;;;;;96.05;15.65;;;8.00;91.50;;;;;;5083727;28;20095;-58
2023/02/06 12:25:47;;;;;;;79.15;14.52;;;8.00;91.50;;;;;;5082508;28;20029;-58
2023/02/06 12:28:20;;;;;;;74.00;13.15;;;8.10;91.50;;;;;;5082336;28;20086;-58
2023/02/06 12:31:12;;;;;;;71.05;13.32;;;8.10;91.50;;;;;;5082294;28;20028;-58
2023/02/06 12:33:44;;;;;;;66.95;12.57;;;8.00;91.40;;;;;;5065557;28;20025;-57
2023/02/06 12:36:19;;;;;;;87.75;14.88;;;8.10;91.40;;;;;;5085076;28;20024;-58
2023/02/06 12:38:48;;;;;;;103.85;14.40;;;8.10;91.60;;;;;;5086060;28;20104;-58
2023/02/06 12:41:37;;;;;;;70.82;13.90;;;8.10;91.20;;;;;;5087321;28;20044;-58
2023/02/06 12:44:27;;;;;;;93.70;15.05;;;8.10;91.20;;;;;;5079371;28;20056;-58
2023/02/06 12:47:03;;;;;;;89.00;15.73;;;8.10;91.20;;;;;;5056828;28;20484;-58
2023/02/06 12:49:33;;;;;;;81.40;14.02;;;8.10;91.20;;;;;;5085534;28;20437;-58
2023/02/06 12:52:31;;;;;;;96.70;14.75;;;8.10;91.20;;;;;;5085880;28;20024;-58
2023/02/06 12:55:01;;;;;;;86.03;14.90;;;8.10;91.20;;;;;;5085833;28;20036;-59
2023/02/06 12:57:27;;;;;;;117.60;17.45;;;8.10;91.00;;;;;;5068709;28;20032;-58
2023/02/06 13:00:01;;;;;;;119.55;17.00;;;8.10;90.90;;;;;;5068715;28;20086;-58